sensor_id;sensor_type;location;lat;lon;timestamp;P1;durP1;ratioP1;P2;durP2;ratioP2
79052;SDS011;68451;49.510;6.026;2023-03-17T00:01:50;3.83;;;2.67;;
79052;SDS011;68451;49.510;6.026;2023-03-17T00:04:18;3.95;;;2.40;;
79052;SDS011;68451;49.510;6.026;2023-03-17T00:06:44;4.60;;;2.63;;
79052;SDS011;68451;49.510;6.026;2023-03-17T00:09:14;5.57;;;2.33;;
79052;SDS011;68451;49.510;6.026;2023-03-17T00:11:41;3.80;;;2.20;;
79052;SDS011;68451;49.510;6.026;2023-03-17T00:14:08;2.40;;;2.17;;
79052;SDS011;68451;49.510;6.026;2023-03-17T00:16:35;2.78;;;2.20;;
79052;SDS011;68451;49.510;6.026;2023-03-17T00:19:03;3.65;;;2.55;;
79052;SDS011;68451;49.510;6.026;2023-03-17T00:21:30;3.60;;;2.25;;
79052;SDS011;68451;49.510;6.026;2023-03-17T00:23:58;3.38;;;2.15;;
79052;SDS011;68451;49.510;6.026;2023-03-17T00:26:24;3.25;;;1.90;;
79052;SDS011;68451;49.510;6.026;2023-03-17T00:28:51;3.03;;;2.05;;
79052;SDS011;68451;49.510;6.026;2023-03-17T00:31:18;2.60;;;1.88;;
79052;SDS011;68451;49.510;6.026;2023-03-17T00:33:46;2.38;;;2.10;;
79052;SDS011;68451;49.510;6.026;2023-03-17T00:36:18;5.95;;;2.63;;
79052;SDS011;68451;49.510;6.026;2023-03-17T00:41:11;4.70;;;2.67;;
79052;SDS011;68451;49.510;6.026;2023-03-17T00:43:38;4.95;;;3.25;;
79052;SDS011;68451;49.510;6.026;2023-03-17T00:46:08;4.07;;;2.17;;
79052;SDS011;68451;49.510;6.026;2023-03-17T00:48:37;2.92;;;2.22;;
79052;SDS011;68451;49.510;6.026;2023-03-17T00:51:03;3.30;;;2.50;;
79052;SDS011;68451;49.510;6.026;2023-03-17T00:53:29;2.72;;;2.30;;
79052;SDS011;68451;49.510;6.026;2023-03-17T00:55:55;5.72;;;2.78;;
79052;SDS011;68451;49.510;6.026;2023-03-17T00:58:27;3.35;;;2.33;;
79052;SDS011;68451;49.510;6.026;2023-03-17T01:00:55;3.65;;;2.50;;
79052;SDS011;68451;49.510;6.026;2023-03-17T01:03:21;3.03;;;2.15;;
79052;SDS011;68451;49.510;6.026;2023-03-17T01:05:48;2.85;;;2.00;;
79052;SDS011;68451;49.510;6.026;2023-03-17T01:08:14;2.85;;;1.90;;
79052;SDS011;68451;49.510;6.026;2023-03-17T01:10:41;2.78;;;1.92;;
79052;SDS011;68451;49.510;6.026;2023-03-17T01:13:07;2.20;;;1.95;;
79052;SDS011;68451;49.510;6.026;2023-03-17T01:15:36;3.65;;;2.30;;
79052;SDS011;68451;49.510;6.026;2023-03-17T01:18:05;2.88;;;2.08;;
79052;SDS011;68451;49.510;6.026;2023-03-17T01:20:31;3.03;;;2.17;;
79052;SDS011;68451;49.510;6.026;2023-03-17T01:22:59;3.63;;;2.15;;
79052;SDS011;68451;49.510;6.026;2023-03-17T01:25:26;3.45;;;2.53;;
79052;SDS011;68451;49.510;6.026;2023-03-17T01:27:53;3.47;;;2.60;;
79052;SDS011;68451;49.510;6.026;2023-03-17T01:30:26;2.60;;;2.10;;
79052;SDS011;68451;49.510;6.026;2023-03-17T01:32:54;4.25;;;2.20;;
79052;SDS011;68451;49.510;6.026;2023-03-17T01:35:22;4.25;;;2.10;;
79052;SDS011;68451;49.510;6.026;2023-03-17T01:37:48;2.55;;;1.85;;
79052;SDS011;68451;49.510;6.026;2023-03-17T01:40:22;5.03;;;3.08;;
79052;SDS011;68451;49.510;6.026;2023-03-17T01:42:51;2.47;;;1.92;;
79052;SDS011;68451;49.510;6.026;2023-03-17T01:48:16;2.20;;;1.95;;
79052;SDS011;68451;49.510;6.026;2023-03-17T01:50:43;3.42;;;2.20;;
79052;SDS011;68451;49.510;6.026;2023-03-17T01:53:10;3.72;;;2.10;;
79052;SDS011;68451;49.510;6.026;2023-03-17T01:55:37;2.08;;;1.85;;
79052;SDS011;68451;49.510;6.026;2023-03-17T01:58:04;2.83;;;2.22;;
79052;SDS011;68451;49.510;6.026;2023-03-17T02:00:30;2.50;;;2.05;;
79052;SDS011;68451;49.510;6.026;2023-03-17T02:02:57;4.35;;;2.30;;
79052;SDS011;68451;49.510;6.026;2023-03-17T02:05:23;3.45;;;2.72;;
79052;SDS011;68451;49.510;6.026;2023-03-17T02:07:51;3.22;;;1.88;;
79052;SDS011;68451;49.510;6.026;2023-03-17T02:10:18;3.28;;;2.00;;
79052;SDS011;68451;49.510;6.026;2023-03-17T02:12:46;3.33;;;2.20;;
79052;SDS011;68451;49.510;6.026;2023-03-17T02:15:16;3.15;;;2.25;;
79052;SDS011;68451;49.510;6.026;2023-03-17T02:17:42;3.17;;;2.33;;
79052;SDS011;68451;49.510;6.026;2023-03-17T02:23:17;3.22;;;2.05;;
79052;SDS011;68451;49.510;6.026;2023-03-17T02:25:49;3.03;;;2.30;;
79052;SDS011;68451;49.510;6.026;2023-03-17T02:28:23;3.72;;;2.00;;
79052;SDS011;68451;49.510;6.026;2023-03-17T02:30:53;3.53;;;2.20;;
79052;SDS011;68451;49.510;6.026;2023-03-17T02:33:19;2.60;;;2.28;;
79052;SDS011;68451;49.510;6.026;2023-03-17T02:35:45;3.83;;;2.35;;
79052;SDS011;68451;49.510;6.026;2023-03-17T02:38:11;4.53;;;2.65;;
79052;SDS011;68451;49.510;6.026;2023-03-17T02:40:36;2.97;;;2.30;;
79052;SDS011;68451;49.510;6.026;2023-03-17T02:43:02;6.32;;;2.72;;
79052;SDS011;68451;49.510;6.026;2023-03-17T02:45:29;2.58;;;1.90;;
79052;SDS011;68451;49.510;6.026;2023-03-17T02:47:58;3.30;;;2.35;;
79052;SDS011;68451;49.510;6.026;2023-03-17T02:50:28;3.78;;;2.72;;
79052;SDS011;68451;49.510;6.026;2023-03-17T02:52:54;2.88;;;2.53;;
79052;SDS011;68451;49.510;6.026;2023-03-17T02:55:20;3.20;;;2.30;;
79052;SDS011;68451;49.510;6.026;2023-03-17T02:57:45;2.38;;;2.10;;
79052;SDS011;68451;49.510;6.026;2023-03-17T03:00:11;4.72;;;2.42;;
79052;SDS011;68451;49.510;6.026;2023-03-17T03:02:38;3.63;;;2.17;;
79052;SDS011;68451;49.510;6.026;2023-03-17T03:05:04;3.90;;;2.55;;
79052;SDS011;68451;49.510;6.026;2023-03-17T03:07:31;3.70;;;2.08;;
79052;SDS011;68451;49.510;6.026;2023-03-17T03:09:57;2.60;;;1.88;;
79052;SDS011;68451;49.510;6.026;2023-03-17T03:12:23;3.53;;;2.30;;
79052;SDS011;68451;49.510;6.026;2023-03-17T03:14:49;2.72;;;2.15;;
79052;SDS011;68451;49.510;6.026;2023-03-17T03:17:15;3.33;;;2.08;;
79052;SDS011;68451;49.510;6.026;2023-03-17T03:19:40;3.10;;;2.25;;
79052;SDS011;68451;49.510;6.026;2023-03-17T03:22:06;2.33;;;1.80;;
79052;SDS011;68451;49.510;6.026;2023-03-17T03:24:32;2.42;;;2.03;;
79052;SDS011;68451;49.510;6.026;2023-03-17T03:26:57;2.50;;;2.30;;
79052;SDS011;68451;49.510;6.026;2023-03-17T03:29:23;4.32;;;2.40;;
79052;SDS011;68451;49.510;6.026;2023-03-17T03:31:48;5.57;;;2.45;;
79052;SDS011;68451;49.510;6.026;2023-03-17T03:34:14;6.75;;;2.45;;
79052;SDS011;68451;49.510;6.026;2023-03-17T03:36:40;3.28;;;2.35;;
79052;SDS011;68451;49.510;6.026;2023-03-17T03:39:05;5.03;;;2.70;;
79052;SDS011;68451;49.510;6.026;2023-03-17T03:41:32;3.08;;;2.38;;
79052;SDS011;68451;49.510;6.026;2023-03-17T03:43:58;3.30;;;3.00;;
79052;SDS011;68451;49.510;6.026;2023-03-17T03:46:24;4.43;;;2.25;;
79052;SDS011;68451;49.510;6.026;2023-03-17T03:48:50;3.15;;;2.60;;
79052;SDS011;68451;49.510;6.026;2023-03-17T03:51:16;3.45;;;2.53;;
79052;SDS011;68451;49.510;6.026;2023-03-17T03:53:41;3.72;;;2.35;;
79052;SDS011;68451;49.510;6.026;2023-03-17T03:56:07;3.65;;;2.38;;
79052;SDS011;68451;49.510;6.026;2023-03-17T03:58:33;3.28;;;2.75;;
79052;SDS011;68451;49.510;6.026;2023-03-17T04:01:02;2.75;;;2.13;;
79052;SDS011;68451;49.510;6.026;2023-03-17T04:03:29;3.92;;;2.40;;
79052;SDS011;68451;49.510;6.026;2023-03-17T04:05:54;5.32;;;2.30;;
79052;SDS011;68451;49.510;6.026;2023-03-17T04:08:20;2.97;;;2.30;;
79052;SDS011;68451;49.510;6.026;2023-03-17T04:10:45;4.53;;;2.42;;
79052;SDS011;68451;49.510;6.026;2023-03-17T04:13:11;3.55;;;3.20;;
79052;SDS011;68451;49.510;6.026;2023-03-17T04:15:38;3.42;;;2.30;;
79052;SDS011;68451;49.510;6.026;2023-03-17T04:18:03;5.55;;;2.65;;
79052;SDS011;68451;49.510;6.026;2023-03-17T04:20:29;2.67;;;1.77;;
79052;SDS011;68451;49.510;6.026;2023-03-17T04:22:55;4.00;;;2.17;;
79052;SDS011;68451;49.510;6.026;2023-03-17T04:25:20;2.63;;;2.17;;
79052;SDS011;68451;49.510;6.026;2023-03-17T04:27:46;4.15;;;1.92;;
79052;SDS011;68451;49.510;6.026;2023-03-17T04:30:12;3.47;;;2.67;;
79052;SDS011;68451;49.510;6.026;2023-03-17T04:32:38;3.65;;;2.45;;
79052;SDS011;68451;49.510;6.026;2023-03-17T04:35:04;2.70;;;1.98;;
79052;SDS011;68451;49.510;6.026;2023-03-17T04:37:30;4.00;;;2.88;;
79052;SDS011;68451;49.510;6.026;2023-03-17T04:39:56;3.72;;;2.70;;
79052;SDS011;68451;49.510;6.026;2023-03-17T04:42:21;2.47;;;2.20;;
79052;SDS011;68451;49.510;6.026;2023-03-17T04:44:47;2.50;;;2.25;;
79052;SDS011;68451;49.510;6.026;2023-03-17T04:47:12;3.45;;;2.00;;
79052;SDS011;68451;49.510;6.026;2023-03-17T04:49:38;2.80;;;2.38;;
79052;SDS011;68451;49.510;6.026;2023-03-17T04:52:03;2.70;;;2.45;;
79052;SDS011;68451;49.510;6.026;2023-03-17T04:54:29;3.90;;;2.65;;
79052;SDS011;68451;49.510;6.026;2023-03-17T04:56:54;2.80;;;2.20;;
79052;SDS011;68451;49.510;6.026;2023-03-17T04:59:20;3.63;;;2.08;;
79052;SDS011;68451;49.510;6.026;2023-03-17T05:04:30;3.67;;;2.30;;
79052;SDS011;68451;49.510;6.026;2023-03-17T05:06:55;2.92;;;2.40;;
79052;SDS011;68451;49.510;6.026;2023-03-17T05:09:22;3.20;;;2.53;;
79052;SDS011;68451;49.510;6.026;2023-03-17T05:11:49;2.75;;;1.70;;
79052;SDS011;68451;49.510;6.026;2023-03-17T05:14:15;2.75;;;2.00;;
79052;SDS011;68451;49.510;6.026;2023-03-17T05:16:41;2.97;;;2.10;;
79052;SDS011;68451;49.510;6.026;2023-03-17T05:19:06;2.92;;;2.53;;
79052;SDS011;68451;49.510;6.026;2023-03-17T05:21:32;3.15;;;2.50;;
79052;SDS011;68451;49.510;6.026;2023-03-17T05:23:58;3.00;;;2.22;;
79052;SDS011;68451;49.510;6.026;2023-03-17T05:26:23;4.22;;;2.10;;
79052;SDS011;68451;49.510;6.026;2023-03-17T05:28:48;3.13;;;2.15;;
79052;SDS011;68451;49.510;6.026;2023-03-17T05:31:14;3.40;;;2.05;;
79052;SDS011;68451;49.510;6.026;2023-03-17T05:33:39;3.67;;;2.47;;
79052;SDS011;68451;49.510;6.026;2023-03-17T05:36:05;3.65;;;2.58;;
79052;SDS011;68451;49.510;6.026;2023-03-17T05:38:31;4.50;;;2.40;;
79052;SDS011;68451;49.510;6.026;2023-03-17T05:40:56;3.38;;;2.50;;
79052;SDS011;68451;49.510;6.026;2023-03-17T05:43:22;3.05;;;2.42;;
79052;SDS011;68451;49.510;6.026;2023-03-17T05:45:47;10.07;;;2.00;;
79052;SDS011;68451;49.510;6.026;2023-03-17T05:48:14;7.43;;;2.45;;
79052;SDS011;68451;49.510;6.026;2023-03-17T05:50:41;2.50;;;2.00;;
79052;SDS011;68451;49.510;6.026;2023-03-17T05:53:07;3.40;;;2.10;;
79052;SDS011;68451;49.510;6.026;2023-03-17T05:55:33;3.30;;;2.42;;
79052;SDS011;68451;49.510;6.026;2023-03-17T05:57:59;4.85;;;2.15;;
79052;SDS011;68451;49.510;6.026;2023-03-17T06:00:25;3.30;;;2.15;;
79052;SDS011;68451;49.510;6.026;2023-03-17T06:02:52;3.20;;;2.45;;
79052;SDS011;68451;49.510;6.026;2023-03-17T06:05:18;4.20;;;2.25;;
79052;SDS011;68451;49.510;6.026;2023-03-17T06:07:43;3.83;;;2.22;;
79052;SDS011;68451;49.510;6.026;2023-03-17T06:10:10;3.17;;;2.30;;
79052;SDS011;68451;49.510;6.026;2023-03-17T06:12:35;3.75;;;2.20;;
79052;SDS011;68451;49.510;6.026;2023-03-17T06:15:01;3.90;;;2.30;;
79052;SDS011;68451;49.510;6.026;2023-03-17T06:17:27;3.28;;;2.10;;
79052;SDS011;68451;49.510;6.026;2023-03-17T06:20:02;3.10;;;2.30;;
79052;SDS011;68451;49.510;6.026;2023-03-17T06:22:28;2.70;;;2.25;;
79052;SDS011;68451;49.510;6.026;2023-03-17T06:24:54;5.82;;;3.15;;
79052;SDS011;68451;49.510;6.026;2023-03-17T06:27:19;5.97;;;3.00;;
79052;SDS011;68451;49.510;6.026;2023-03-17T06:29:45;5.40;;;3.53;;
79052;SDS011;68451;49.510;6.026;2023-03-17T06:32:11;4.53;;;2.78;;
79052;SDS011;68451;49.510;6.026;2023-03-17T06:34:37;4.13;;;3.08;;
79052;SDS011;68451;49.510;6.026;2023-03-17T06:37:02;3.72;;;3.22;;
79052;SDS011;68451;49.510;6.026;2023-03-17T06:39:29;7.57;;;3.13;;
79052;SDS011;68451;49.510;6.026;2023-03-17T06:41:54;8.75;;;2.88;;
79052;SDS011;68451;49.510;6.026;2023-03-17T06:44:20;3.88;;;3.28;;
79052;SDS011;68451;49.510;6.026;2023-03-17T06:46:46;5.93;;;2.63;;
79052;SDS011;68451;49.510;6.026;2023-03-17T06:49:11;3.03;;;2.17;;
79052;SDS011;68451;49.510;6.026;2023-03-17T06:51:37;5.22;;;3.03;;
79052;SDS011;68451;49.510;6.026;2023-03-17T06:54:04;3.08;;;2.70;;
79052;SDS011;68451;49.510;6.026;2023-03-17T06:56:31;4.60;;;2.70;;
79052;SDS011;68451;49.510;6.026;2023-03-17T06:58:57;5.85;;;2.90;;
79052;SDS011;68451;49.510;6.026;2023-03-17T07:01:23;4.60;;;2.70;;
79052;SDS011;68451;49.510;6.026;2023-03-17T07:03:49;7.10;;;3.45;;
79052;SDS011;68451;49.510;6.026;2023-03-17T07:06:15;6.20;;;2.83;;
79052;SDS011;68451;49.510;6.026;2023-03-17T07:08:40;5.00;;;3.25;;
79052;SDS011;68451;49.510;6.026;2023-03-17T07:11:06;4.88;;;2.60;;
79052;SDS011;68451;49.510;6.026;2023-03-17T07:13:32;3.63;;;2.67;;
79052;SDS011;68451;49.510;6.026;2023-03-17T07:16:00;4.93;;;2.90;;
79052;SDS011;68451;49.510;6.026;2023-03-17T07:18:27;5.47;;;3.22;;
79052;SDS011;68451;49.510;6.026;2023-03-17T07:20:56;6.30;;;3.22;;
79052;SDS011;68451;49.510;6.026;2023-03-17T07:23:22;6.15;;;2.67;;
79052;SDS011;68451;49.510;6.026;2023-03-17T07:25:48;3.80;;;2.63;;
79052;SDS011;68451;49.510;6.026;2023-03-17T07:28:14;3.38;;;2.60;;
79052;SDS011;68451;49.510;6.026;2023-03-17T07:30:40;5.07;;;2.63;;
79052;SDS011;68451;49.510;6.026;2023-03-17T07:33:11;6.25;;;2.42;;
79052;SDS011;68451;49.510;6.026;2023-03-17T07:35:37;5.05;;;2.97;;
79052;SDS011;68451;49.510;6.026;2023-03-17T07:38:03;4.15;;;2.33;;
79052;SDS011;68451;49.510;6.026;2023-03-17T07:40:29;4.25;;;2.53;;
79052;SDS011;68451;49.510;6.026;2023-03-17T07:42:55;3.10;;;2.85;;
79052;SDS011;68451;49.510;6.026;2023-03-17T07:45:20;3.28;;;2.42;;
79052;SDS011;68451;49.510;6.026;2023-03-17T07:47:46;4.55;;;2.38;;
79052;SDS011;68451;49.510;6.026;2023-03-17T07:50:11;4.13;;;2.60;;
79052;SDS011;68451;49.510;6.026;2023-03-17T07:52:37;5.28;;;2.35;;
79052;SDS011;68451;49.510;6.026;2023-03-17T07:55:03;4.47;;;2.47;;
79052;SDS011;68451;49.510;6.026;2023-03-17T07:57:32;3.97;;;2.83;;
79052;SDS011;68451;49.510;6.026;2023-03-17T07:59:58;3.85;;;2.85;;
79052;SDS011;68451;49.510;6.026;2023-03-17T08:02:23;5.05;;;2.83;;
79052;SDS011;68451;49.510;6.026;2023-03-17T08:04:50;3.63;;;2.55;;
79052;SDS011;68451;49.510;6.026;2023-03-17T08:07:15;3.88;;;2.83;;
79052;SDS011;68451;49.510;6.026;2023-03-17T08:09:41;3.88;;;2.17;;
79052;SDS011;68451;49.510;6.026;2023-03-17T08:12:07;5.93;;;2.00;;
79052;SDS011;68451;49.510;6.026;2023-03-17T08:14:33;3.08;;;1.83;;
79052;SDS011;68451;49.510;6.026;2023-03-17T08:16:58;2.65;;;1.98;;
79052;SDS011;68451;49.510;6.026;2023-03-17T08:19:24;4.00;;;2.67;;
79052;SDS011;68451;49.510;6.026;2023-03-17T08:21:49;2.92;;;2.30;;
79052;SDS011;68451;49.510;6.026;2023-03-17T08:24:15;2.45;;;2.13;;
79052;SDS011;68451;49.510;6.026;2023-03-17T08:26:41;5.47;;;2.72;;
79052;SDS011;68451;49.510;6.026;2023-03-17T08:29:07;2.90;;;2.13;;
79052;SDS011;68451;49.510;6.026;2023-03-17T08:31:33;5.93;;;2.92;;
79052;SDS011;68451;49.510;6.026;2023-03-17T08:34:00;2.60;;;1.60;;
79052;SDS011;68451;49.510;6.026;2023-03-17T08:36:27;3.33;;;2.10;;
79052;SDS011;68451;49.510;6.026;2023-03-17T08:38:53;2.25;;;1.80;;
79052;SDS011;68451;49.510;6.026;2023-03-17T08:41:20;3.13;;;2.30;;
79052;SDS011;68451;49.510;6.026;2023-03-17T08:43:47;4.43;;;2.30;;
79052;SDS011;68451;49.510;6.026;2023-03-17T08:46:14;4.25;;;2.22;;
79052;SDS011;68451;49.510;6.026;2023-03-17T08:48:43;5.72;;;2.00;;
79052;SDS011;68451;49.510;6.026;2023-03-17T08:51:11;4.85;;;1.92;;
79052;SDS011;68451;49.510;6.026;2023-03-17T08:53:37;3.20;;;1.92;;
79052;SDS011;68451;49.510;6.026;2023-03-17T08:56:03;3.25;;;1.67;;
79052;SDS011;68451;49.510;6.026;2023-03-17T08:58:31;3.08;;;1.48;;
79052;SDS011;68451;49.510;6.026;2023-03-17T09:00:58;3.33;;;1.70;;
79052;SDS011;68451;49.510;6.026;2023-03-17T09:03:24;2.00;;;1.65;;
79052;SDS011;68451;49.510;6.026;2023-03-17T09:05:50;3.53;;;1.88;;
79052;SDS011;68451;49.510;6.026;2023-03-17T09:08:16;3.13;;;1.70;;
79052;SDS011;68451;49.510;6.026;2023-03-17T09:10:42;4.07;;;1.60;;
79052;SDS011;68451;49.510;6.026;2023-03-17T09:13:08;4.35;;;2.13;;
79052;SDS011;68451;49.510;6.026;2023-03-17T09:15:34;4.07;;;1.75;;
79052;SDS011;68451;49.510;6.026;2023-03-17T09:18:01;3.17;;;2.00;;
79052;SDS011;68451;49.510;6.026;2023-03-17T09:20:27;3.65;;;1.70;;
79052;SDS011;68451;49.510;6.026;2023-03-17T09:22:53;3.58;;;2.03;;
79052;SDS011;68451;49.510;6.026;2023-03-17T09:25:20;3.83;;;1.58;;
79052;SDS011;68451;49.510;6.026;2023-03-17T09:27:46;4.85;;;2.13;;
79052;SDS011;68451;49.510;6.026;2023-03-17T09:30:11;3.92;;;2.10;;
79052;SDS011;68451;49.510;6.026;2023-03-17T09:32:38;6.55;;;2.65;;
79052;SDS011;68451;49.510;6.026;2023-03-17T09:35:04;2.83;;;2.10;;
79052;SDS011;68451;49.510;6.026;2023-03-17T09:37:30;3.47;;;2.35;;
79052;SDS011;68451;49.510;6.026;2023-03-17T09:39:56;3.78;;;2.35;;
79052;SDS011;68451;49.510;6.026;2023-03-17T09:42:26;3.85;;;1.92;;
79052;SDS011;68451;49.510;6.026;2023-03-17T09:45:26;4.57;;;2.50;;
79052;SDS011;68451;49.510;6.026;2023-03-17T09:53:44;6.50;;;2.72;;
79052;SDS011;68451;49.510;6.026;2023-03-17T09:56:21;5.10;;;2.22;;
79052;SDS011;68451;49.510;6.026;2023-03-17T09:58:54;6.60;;;2.97;;
79052;SDS011;68451;49.510;6.026;2023-03-17T10:01:22;5.50;;;2.30;;
79052;SDS011;68451;49.510;6.026;2023-03-17T10:03:48;9.43;;;3.00;;
79052;SDS011;68451;49.510;6.026;2023-03-17T10:06:24;5.97;;;2.97;;
79052;SDS011;68451;49.510;6.026;2023-03-17T10:09:11;8.20;;;3.30;;
79052;SDS011;68451;49.510;6.026;2023-03-17T10:11:52;6.57;;;3.38;;
79052;SDS011;68451;49.510;6.026;2023-03-17T10:14:28;6.30;;;3.13;;
79052;SDS011;68451;49.510;6.026;2023-03-17T10:17:11;9.40;;;4.05;;
79052;SDS011;68451;49.510;6.026;2023-03-17T10:22:46;12.70;;;4.28;;
79052;SDS011;68451;49.510;6.026;2023-03-17T10:25:21;15.85;;;6.93;;
79052;SDS011;68451;49.510;6.026;2023-03-17T10:27:52;11.82;;;7.60;;
79052;SDS011;68451;49.510;6.026;2023-03-17T10:30:22;18.23;;;7.63;;
79052;SDS011;68451;49.510;6.026;2023-03-17T10:32:48;14.45;;;6.25;;
79052;SDS011;68451;49.510;6.026;2023-03-17T10:35:16;10.30;;;5.00;;
79052;SDS011;68451;49.510;6.026;2023-03-17T10:37:44;9.57;;;4.90;;
79052;SDS011;68451;49.510;6.026;2023-03-17T10:40:18;10.57;;;4.63;;
79052;SDS011;68451;49.510;6.026;2023-03-17T10:42:47;9.07;;;4.45;;
79052;SDS011;68451;49.510;6.026;2023-03-17T10:45:23;10.80;;;5.93;;
79052;SDS011;68451;49.510;6.026;2023-03-17T10:47:53;7.15;;;3.95;;
79052;SDS011;68451;49.510;6.026;2023-03-17T10:50:26;6.78;;;3.30;;
79052;SDS011;68451;49.510;6.026;2023-03-17T10:53:06;8.38;;;3.40;;
79052;SDS011;68451;49.510;6.026;2023-03-17T10:55:39;5.72;;;2.67;;
79052;SDS011;68451;49.510;6.026;2023-03-17T11:00:44;3.47;;;2.05;;
79052;SDS011;68451;49.510;6.026;2023-03-17T11:03:22;5.22;;;2.35;;
79052;SDS011;68451;49.510;6.026;2023-03-17T11:05:54;5.55;;;2.50;;
79052;SDS011;68451;49.510;6.026;2023-03-17T11:08:22;3.88;;;2.20;;
79052;SDS011;68451;49.510;6.026;2023-03-17T11:10:52;4.95;;;2.20;;
79052;SDS011;68451;49.510;6.026;2023-03-17T11:13:19;8.73;;;2.03;;
79052;SDS011;68451;49.510;6.026;2023-03-17T11:15:46;3.47;;;1.92;;
79052;SDS011;68451;49.510;6.026;2023-03-17T11:18:18;3.45;;;2.30;;
79052;SDS011;68451;49.510;6.026;2023-03-17T11:20:49;9.00;;;2.85;;
79052;SDS011;68451;49.510;6.026;2023-03-17T11:25:53;3.20;;;1.88;;
79052;SDS011;68451;49.510;6.026;2023-03-17T11:28:39;5.18;;;2.47;;
79052;SDS011;68451;49.510;6.026;2023-03-17T11:31:14;6.90;;;2.03;;
79052;SDS011;68451;49.510;6.026;2023-03-17T11:33:57;5.10;;;2.30;;
79052;SDS011;68451;49.510;6.026;2023-03-17T11:36:43;7.53;;;2.25;;
79052;SDS011;68451;49.510;6.026;2023-03-17T11:39:24;3.95;;;1.88;;
79052;SDS011;68451;49.510;6.026;2023-03-17T11:42:03;2.65;;;1.90;;
79052;SDS011;68451;49.510;6.026;2023-03-17T11:47:56;4.35;;;1.80;;
79052;SDS011;68451;49.510;6.026;2023-03-17T11:50:49;4.03;;;1.85;;
79052;SDS011;68451;49.510;6.026;2023-03-17T11:53:44;6.32;;;1.80;;
79052;SDS011;68451;49.510;6.026;2023-03-17T11:56:19;4.72;;;2.33;;
79052;SDS011;68451;49.510;6.026;2023-03-17T11:58:50;2.92;;;1.75;;
79052;SDS011;68451;49.510;6.026;2023-03-17T12:01:23;2.78;;;1.92;;
79052;SDS011;68451;49.510;6.026;2023-03-17T12:04:06;3.67;;;1.98;;
79052;SDS011;68451;49.510;6.026;2023-03-17T12:06:41;3.38;;;2.05;;
79052;SDS011;68451;49.510;6.026;2023-03-17T12:12:00;5.38;;;2.72;;
79052;SDS011;68451;49.510;6.026;2023-03-17T12:14:30;6.85;;;2.65;;
79052;SDS011;68451;49.510;6.026;2023-03-17T12:17:02;4.88;;;2.20;;
79052;SDS011;68451;49.510;6.026;2023-03-17T12:19:49;3.58;;;2.03;;
79052;SDS011;68451;49.510;6.026;2023-03-17T12:22:38;5.25;;;1.90;;
79052;SDS011;68451;49.510;6.026;2023-03-17T12:27:53;3.70;;;1.87;;
79052;SDS011;68451;49.510;6.026;2023-03-17T12:36:18;3.30;;;1.92;;
79052;SDS011;68451;49.510;6.026;2023-03-17T12:38:52;5.72;;;2.10;;
79052;SDS011;68451;49.510;6.026;2023-03-17T12:55:31;4.72;;;2.28;;
79052;SDS011;68451;49.510;6.026;2023-03-17T12:58:04;4.65;;;1.92;;
79052;SDS011;68451;49.510;6.026;2023-03-17T13:00:47;4.97;;;2.33;;
79052;SDS011;68451;49.510;6.026;2023-03-17T13:03:21;9.18;;;2.10;;
79052;SDS011;68451;49.510;6.026;2023-03-17T13:05:52;3.38;;;1.80;;
79052;SDS011;68451;49.510;6.026;2023-03-17T13:08:32;5.65;;;2.42;;
79052;SDS011;68451;49.510;6.026;2023-03-17T13:16:39;5.53;;;2.25;;
79052;SDS011;68451;49.510;6.026;2023-03-17T13:21:50;3.65;;;2.00;;
79052;SDS011;68451;49.510;6.026;2023-03-17T13:24:22;4.28;;;2.20;;
79052;SDS011;68451;49.510;6.026;2023-03-17T13:26:59;2.05;;;1.60;;
79052;SDS011;68451;49.510;6.026;2023-03-17T13:29:42;7.13;;;2.17;;
79052;SDS011;68451;49.510;6.026;2023-03-17T13:43:35;3.05;;;1.45;;
79052;SDS011;68451;49.510;6.026;2023-03-17T13:48:46;3.80;;;1.70;;
79052;SDS011;68451;49.510;6.026;2023-03-17T13:51:16;2.75;;;1.38;;
79052;SDS011;68451;49.510;6.026;2023-03-17T13:56:20;3.15;;;2.13;;
79052;SDS011;68451;49.510;6.026;2023-03-17T13:58:55;4.25;;;2.17;;
79052;SDS011;68451;49.510;6.026;2023-03-17T14:01:33;3.22;;;2.05;;
79052;SDS011;68451;49.510;6.026;2023-03-17T14:04:04;4.43;;;1.85;;
79052;SDS011;68451;49.510;6.026;2023-03-17T14:06:36;4.35;;;1.60;;
79052;SDS011;68451;49.510;6.026;2023-03-17T14:09:10;2.42;;;1.65;;
79052;SDS011;68451;49.510;6.026;2023-03-17T14:11:51;4.25;;;2.08;;
79052;SDS011;68451;49.510;6.026;2023-03-17T14:17:10;3.55;;;1.90;;
79052;SDS011;68451;49.510;6.026;2023-03-17T14:19:39;4.50;;;2.17;;
79052;SDS011;68451;49.510;6.026;2023-03-17T14:24:49;2.58;;;1.52;;
79052;SDS011;68451;49.510;6.026;2023-03-17T14:27:16;6.13;;;3.20;;
79052;SDS011;68451;49.510;6.026;2023-03-17T14:29:42;5.78;;;2.78;;
79052;SDS011;68451;49.510;6.026;2023-03-17T14:32:12;8.20;;;2.97;;
79052;SDS011;68451;49.510;6.026;2023-03-17T14:34:47;12.00;;;4.97;;
79052;SDS011;68451;49.510;6.026;2023-03-17T14:37:19;13.35;;;6.93;;
79052;SDS011;68451;49.510;6.026;2023-03-17T14:39:52;20.25;;;10.75;;
79052;SDS011;68451;49.510;6.026;2023-03-17T14:42:25;19.33;;;9.32;;
79052;SDS011;68451;49.510;6.026;2023-03-17T14:45:05;25.20;;;11.15;;
79052;SDS011;68451;49.510;6.026;2023-03-17T14:47:35;37.65;;;21.70;;
79052;SDS011;68451;49.510;6.026;2023-03-17T14:50:04;53.67;;;37.38;;
79052;SDS011;68451;49.510;6.026;2023-03-17T14:52:38;88.90;;;57.17;;
79052;SDS011;68451;49.510;6.026;2023-03-17T14:55:05;93.03;;;58.33;;
79052;SDS011;68451;49.510;6.026;2023-03-17T14:57:32;86.63;;;59.67;;
79052;SDS011;68451;49.510;6.026;2023-03-17T14:59:59;87.72;;;58.13;;
79052;SDS011;68451;49.510;6.026;2023-03-17T15:02:37;84.75;;;50.15;;
79052;SDS011;68451;49.510;6.026;2023-03-17T15:05:06;80.00;;;50.78;;
79052;SDS011;68451;49.510;6.026;2023-03-17T15:07:55;73.47;;;47.90;;
79052;SDS011;68451;49.510;6.026;2023-03-17T15:10:24;69.50;;;43.42;;
79052;SDS011;68451;49.510;6.026;2023-03-17T15:13:01;72.30;;;43.13;;
79052;SDS011;68451;49.510;6.026;2023-03-17T15:15:32;55.25;;;39.25;;
79052;SDS011;68451;49.510;6.026;2023-03-17T15:18:02;50.40;;;31.83;;
79052;SDS011;68451;49.510;6.026;2023-03-17T15:20:32;45.08;;;27.63;;
79052;SDS011;68451;49.510;6.026;2023-03-17T15:23:02;34.40;;;21.20;;
79052;SDS011;68451;49.510;6.026;2023-03-17T15:25:33;26.08;;;16.85;;
79052;SDS011;68451;49.510;6.026;2023-03-17T15:28:12;25.58;;;16.27;;
79052;SDS011;68451;49.510;6.026;2023-03-17T15:30:40;20.80;;;13.45;;
79052;SDS011;68451;49.510;6.026;2023-03-17T15:33:19;26.38;;;13.32;;
79052;SDS011;68451;49.510;6.026;2023-03-17T15:36:05;20.25;;;11.93;;
79052;SDS011;68451;49.510;6.026;2023-03-17T15:38:31;21.40;;;9.73;;
79052;SDS011;68451;49.510;6.026;2023-03-17T15:40:58;17.02;;;9.82;;
79052;SDS011;68451;49.510;6.026;2023-03-17T15:43:24;14.35;;;9.02;;
79052;SDS011;68451;49.510;6.026;2023-03-17T15:45:52;14.38;;;7.88;;
79052;SDS011;68451;49.510;6.026;2023-03-17T15:48:21;8.73;;;6.35;;
79052;SDS011;68451;49.510;6.026;2023-03-17T15:50:49;11.25;;;7.28;;
79052;SDS011;68451;49.510;6.026;2023-03-17T15:53:17;10.02;;;6.10;;
79052;SDS011;68451;49.510;6.026;2023-03-17T15:55:43;7.20;;;5.45;;
79052;SDS011;68451;49.510;6.026;2023-03-17T15:58:09;11.15;;;5.35;;
79052;SDS011;68451;49.510;6.026;2023-03-17T16:00:34;6.75;;;4.70;;
79052;SDS011;68451;49.510;6.026;2023-03-17T16:03:06;9.27;;;4.38;;
79052;SDS011;68451;49.510;6.026;2023-03-17T16:05:45;6.80;;;4.50;;
79052;SDS011;68451;49.510;6.026;2023-03-17T16:08:13;7.32;;;4.57;;
79052;SDS011;68451;49.510;6.026;2023-03-17T16:10:42;7.05;;;4.28;;
79052;SDS011;68451;49.510;6.026;2023-03-17T16:13:09;6.22;;;3.08;;
79052;SDS011;68451;49.510;6.026;2023-03-17T16:15:35;7.70;;;3.75;;
79052;SDS011;68451;49.510;6.026;2023-03-17T16:18:06;6.97;;;4.05;;
79052;SDS011;68451;49.510;6.026;2023-03-17T16:20:40;3.88;;;2.78;;